Meteo Giornale » Osservazioni meteo Croazia » Osijek

ore: 12:30 - Osservazioni Meteo Osijek
Lat. 45° 28' N Lon. 18° 49' E Alt. 89 metri s.l.m.

sereno Europe/Zagreb

22 °C

Sereno

Temp. 24 Ore

7 °C

27 °C

Nord

5.5 Km/h

Dew point 12 °C

Umidità 53 %

Visibilità  8 Km

Il sole sorge alle ore 07:10

Il sole tramonta alle ore 17:47

Data e Ora Cielo e Fenomeni T °C DP °C Um. % Pres. hPa Vis. km Vento km/h
Oggi h: 12:30 sereno Sereno 22 12 53 1020 8 N 5.5
Oggi h: 12:00 sereno Sereno 21 12 56 1021 8 SE 7.4
Oggi h: 11:30 sereno Sereno 20 11 56 1021 7 S/SE 7.4
Oggi h: 11:00 sereno Sereno 19 11 59 1021 7 S/SE 7.4
Oggi h: 10:30 foschia Foschia 18 11 63 1021 4 S/SE 7.4
Oggi h: 10:00 foschia Foschia 17 11 67 1021 3 SE 7.4
Oggi h: 09:30 foschia Foschia 14 12 87 1021 3 N 3.7
Oggi h: 09:00 foschia Foschia 12 10 87 1021 4 N 0
Oggi h: 08:30 foschia Foschia 9 9 100 1021 4 N 0
Oggi h: 08:00 foschia Foschia 7 7 100 1021 1 N 0
Oggi h: 07:30 nebbia Nebbia 7 6 93 1021 0.4 N 0
Oggi h: 07:00 foschia Foschia 7 7 100 1021 2 N 3.7
Oggi h: 06:30 foschia Foschia 8 7 93 1021 3 N 3.7
Oggi h: 06:00 foschia Foschia 8 8 100 1021 4 N 5.5
Oggi h: 05:30 sereno Sereno 8 7 93 1021 10 N 3.7
Oggi h: 05:00 sereno Sereno 9 8 93 1021 10 N 3.7
Oggi h: 04:30 sereno Sereno 9 8 93 1021 10 N 3.7
Oggi h: 04:00 sereno Sereno 9 8 93 1021 10 N 5.5
Oggi h: 03:30 sereno Sereno 10 9 93 1021 10 N 5.5
Oggi h: 03:00 sereno Sereno 10 9 93 1021 10 N 3.7
Oggi h: 02:30 sereno Sereno 10 8 87 1021 10 N 3.7
Oggi h: 02:00 sereno Sereno 11 9 87 1022 10 N 5.5
Oggi h: 01:30 sereno Sereno 11 9 87 1022 10 N 5.5
Oggi h: 01:00 sereno Sereno 11 9 87 1022 10 E 7.4
Oggi h: 00:30 sereno Sereno 11 10 93 1022 10 N 5.5
Oggi h: 00:00 sereno Sereno 12 9 81 1022 10 N 5.5
Ieri h: 23:30 sereno Sereno 13 11 87 1022 10 N 3.7
Ieri h: 23:00 sereno Sereno 13 10 81 1022 10 N 0
Ieri h: 22:30 sereno Sereno 13 10 81 1022 10 N 0
Ieri h: 22:00 sereno Sereno 13 10 81 1022 10 N 1.8
Ieri h: 21:30 sereno Sereno 14 10 76 1022 10 E/NE 7.4
Ieri h: 21:00 sereno Sereno 15 10 72 1022 10 E/NE 7.4
Ieri h: 20:30 sereno Sereno 15 10 72 1022 10 E/NE 11.1
Ieri h: 20:00 sereno Sereno 16 11 72 1022 10 E/NE 9.3
Ieri h: 19:30 sereno Sereno 17 11 67 1022 10 E/NE 9.3
Ieri h: 19:00 sereno Sereno 18 11 63 1022 10 E 7.4
Ieri h: 18:30 sereno Sereno 20 11 56 1022 10 E 7.4
Ieri h: 18:00 sereno Sereno 21 11 52 1021 10 E 7.4
Ieri h: 17:30 sereno Sereno 24 11 43 1021 10 E/SE 9.3
Ieri h: 17:00 sereno Sereno 25 13 47 1021 10 E 7.4
Ieri h: 16:30 sereno Sereno 26 12 41 1021 10 E 7.4
Ieri h: 16:00 sereno Sereno 27 12 39 1021 10 N 5.5
Ieri h: 15:30 sereno Sereno 27 11 36 1022 10 SE 7.4
Ieri h: 15:00 sereno Sereno 27 12 39 1022 10 N 5.5
Ieri h: 14:30 sereno Sereno 27 13 42 1022 10 N 7.4
Ieri h: 14:00 sereno Sereno 27 12 39 1022 10 N 5.5
Ieri h: 13:30 sereno Sereno 26 12 41 1022 10 N 5.5
Ieri h: 13:00 sereno Sereno 26 12 41 1023 10 SE 7.4